createdAt,value
2019-05-11T00:03:10.044Z,66
2019-05-11T00:08:15.131Z,67
2019-05-11T00:13:20.071Z,68
2019-05-11T00:18:25.011Z,68
2019-05-11T00:23:30.059Z,70
2019-05-11T00:28:40.119Z,69
2019-05-11T00:33:50.025Z,69
2019-05-11T00:38:55.026Z,71
2019-05-11T00:44:00.041Z,70
2019-05-11T00:49:05.014Z,71
2019-05-11T00:54:10.012Z,72
2019-05-11T00:59:22.270Z,71
2019-05-11T01:04:20.103Z,72
2019-05-11T01:09:25.052Z,72
2019-05-11T01:19:25.297Z,71
2019-05-11T01:24:30.325Z,71
2019-05-11T01:29:35.326Z,71
2019-05-11T01:34:45.304Z,70
2019-05-11T01:39:55.250Z,71
2019-05-11T01:45:00.599Z,72
2019-05-11T01:50:05.240Z,72
2019-05-11T02:00:05.463Z,72
2019-05-11T02:05:10.444Z,72
2019-05-11T02:10:15.506Z,72
2019-05-11T02:15:25.494Z,72
2019-05-11T02:25:30.620Z,72
2019-05-11T02:30:35.612Z,72
2019-05-11T02:35:40.654Z,72
2019-05-11T02:40:50.602Z,71
2019-05-11T02:46:00.636Z,72
2019-05-11T02:51:05.696Z,71
2019-05-11T02:56:10.669Z,71
2019-05-11T03:01:15.630Z,71
2019-05-11T03:06:20.652Z,71
2019-05-11T03:11:30.693Z,70
2019-05-11T03:16:40.604Z,70
2019-05-11T03:21:45.666Z,70
2019-05-11T03:26:50.626Z,69
2019-05-11T03:31:55.670Z,69
2019-05-11T03:37:00.582Z,70
2019-05-11T03:43:17.999Z,69
2019-05-11T03:47:10.637Z,69
2019-05-11T03:52:15.612Z,69
2019-05-11T03:57:20.799Z,70
2019-05-11T04:02:25.603Z,69
2019-05-11T04:07:30.637Z,69
2019-05-11T04:17:30.758Z,67
2019-05-11T04:22:35.830Z,68
2019-05-11T04:27:40.850Z,68
2019-05-11T04:32:50.748Z,67
2019-05-11T04:38:00.743Z,67
2019-05-11T04:43:05.851Z,67
2019-05-11T04:48:10.780Z,68
2019-05-11T04:53:15.788Z,67
2019-05-11T04:58:20.811Z,66
2019-05-11T05:04:47.104Z,66
2019-05-11T05:08:40.769Z,66
2019-05-11T05:13:45.777Z,65
2019-05-11T05:18:50.824Z,65
2019-05-11T05:23:55.784Z,66
2019-05-11T05:29:00.810Z,67
2019-05-11T05:34:10.830Z,66
2019-05-11T05:39:20.753Z,64
2019-05-11T05:44:28.248Z,61
2019-05-11T05:49:30.968Z,61
2019-05-11T05:54:35.829Z,60
2019-05-11T05:59:40.772Z,59
2019-05-11T06:04:45.726Z,59
2019-05-11T06:09:55.875Z,58
2019-05-11T06:15:05.752Z,54
2019-05-11T06:20:10.870Z,56
2019-05-11T06:25:15.775Z,56
2019-05-11T06:30:20.756Z,55
2019-05-11T06:35:25.684Z,53
2019-05-11T06:40:35.770Z,53
2019-05-11T06:45:45.742Z,53
2019-05-11T06:50:50.739Z,52
2019-05-11T06:55:55.713Z,50
2019-05-11T07:01:00.827Z,48
2019-05-11T07:06:05.709Z,49
2019-05-11T07:11:15.739Z,50
2019-05-11T07:16:25.787Z,49
2019-05-11T07:21:31.756Z,48
2019-05-11T07:26:35.761Z,47
2019-05-11T07:31:40.737Z,49
2019-05-11T07:36:47.872Z,48
2019-05-11T07:46:48.512Z,45
2019-05-11T07:51:51.017Z,46
2019-05-11T07:56:58.607Z,43
2019-05-11T08:06:58.650Z,43
2019-05-11T08:12:00.984Z,43
2019-05-11T08:17:08.841Z,44
2019-05-11T08:22:16.010Z,42
2019-05-11T08:27:28.318Z,43
2019-05-11T08:32:31.018Z,43
2019-05-11T08:37:36.082Z,42
2019-05-11T08:42:40.981Z,40
2019-05-11T08:52:41.154Z,41
2019-05-11T08:57:48.256Z,40
2019-05-11T09:02:51.466Z,40
2019-05-11T09:08:01.179Z,41
2019-05-11T09:13:11.210Z,41
2019-05-11T09:18:18.481Z,41
2019-05-11T09:24:38.895Z,40
2019-05-11T09:33:21.426Z,39
2019-05-11T09:38:28.038Z,39
2019-05-11T09:43:31.396Z,38
2019-05-11T09:53:31.584Z,38
2019-05-11T09:58:38.963Z,40
2019-05-11T10:03:41.579Z,40
2019-05-11T10:13:41.744Z,38
2019-05-11T10:18:49.495Z,39
2019-05-11T10:23:51.777Z,39
2019-05-11T10:29:01.771Z,38
2019-05-11T10:34:11.686Z,39
2019-05-11T10:39:18.934Z,38
2019-05-11T10:44:21.748Z,40
2019-05-11T10:49:29.096Z,38
2019-05-11T10:54:31.790Z,38
2019-05-11T10:59:41.791Z,39
2019-05-11T11:04:51.700Z,39
2019-05-11T11:09:58.279Z,38
2019-05-11T11:15:01.751Z,39
2019-05-11T11:20:08.938Z,39
2019-05-11T11:30:09.414Z,39
2019-05-11T11:35:11.899Z,40
2019-05-11T11:40:18.038Z,40
2019-05-11T11:45:29.199Z,40
2019-05-11T11:50:38.090Z,40
2019-05-11T11:55:41.851Z,41
2019-05-11T12:00:48.456Z,40
2019-05-11T12:10:48.727Z,41
2019-05-11T12:15:52.125Z,45
2019-05-11T12:20:58.834Z,46
2019-05-11T12:26:08.777Z,50
2019-05-11T12:31:18.812Z,49
2019-05-11T12:36:22.124Z,50
2019-05-11T12:41:28.342Z,50
2019-05-11T12:46:32.048Z,49
2019-05-11T12:51:38.604Z,51
2019-05-11T12:56:49.265Z,51
2019-05-11T13:01:59.354Z,52
2019-05-11T13:07:02.054Z,55
2019-05-11T13:17:02.294Z,54
2019-05-11T13:22:08.119Z,55
2019-05-11T13:27:12.317Z,55
2019-05-11T13:32:22.350Z,55
2019-05-11T13:37:32.281Z,54
2019-05-11T13:42:38.865Z,55
2019-05-11T13:48:52.588Z,54
2019-05-11T13:52:48.117Z,54
2019-05-11T13:57:52.312Z,54
2019-05-11T14:02:58.791Z,56
2019-05-11T14:08:02.244Z,55
2019-05-11T14:13:09.063Z,55
2019-05-11T14:18:12.443Z,57
2019-05-11T14:23:18.528Z,57
2019-05-11T14:28:22.312Z,57
2019-05-11T14:33:28.594Z,57
2019-05-11T14:38:32.185Z,57
2019-05-11T14:43:42.373Z,58
2019-05-11T14:48:52.248Z,60
2019-05-11T14:53:59.722Z,58
2019-05-11T14:59:02.232Z,60
2019-05-11T15:04:09.387Z,64
2019-05-11T15:09:12.195Z,63
2019-05-11T15:14:22.443Z,68
2019-05-11T15:19:32.259Z,70
2019-05-11T15:24:38.731Z,70
2019-05-11T15:29:42.289Z,69
2019-05-11T15:34:49.027Z,69
2019-05-11T15:39:52.187Z,70
2019-05-11T15:45:02.201Z,69
2019-05-11T15:50:12.237Z,71
2019-05-11T15:55:19.500Z,71
2019-05-11T16:00:22.144Z,73
2019-05-11T16:05:28.781Z,74
2019-05-11T16:10:32.267Z,72
2019-05-11T16:15:42.180Z,74
2019-05-11T16:20:52.203Z,76
2019-05-11T16:25:58.413Z,76
2019-05-11T16:31:02.507Z,77
2019-05-11T16:36:09.398Z,76
2019-05-11T16:46:08.978Z,76
2019-05-11T16:51:12.382Z,76
2019-05-11T16:56:19.805Z,75
2019-05-11T17:01:27.370Z,76
2019-05-11T17:06:38.919Z,74
2019-05-11T17:11:42.418Z,74
2019-05-11T17:16:48.530Z,74
2019-05-11T17:26:48.208Z,72
2019-05-11T17:31:52.531Z,71
2019-05-11T17:37:00.309Z,69
2019-05-11T17:42:09.303Z,69
2019-05-11T17:47:18.284Z,70
2019-05-11T17:52:22.512Z,71
2019-05-11T18:02:22.674Z,71
2019-05-11T18:07:31.101Z,73
2019-05-11T18:12:32.684Z,75
2019-05-11T18:17:42.648Z,75
2019-05-11T18:22:52.670Z,76
2019-05-11T18:27:58.422Z,74
2019-05-11T18:33:02.837Z,74
2019-05-11T18:43:02.862Z,69
2019-05-11T18:48:08.455Z,67
2019-05-11T18:53:12.973Z,67
2019-05-11T18:58:22.879Z,66
2019-05-11T19:03:32.839Z,65
2019-05-11T19:08:38.757Z,65
2019-05-11T19:13:42.874Z,67
2019-05-11T19:18:48.259Z,64
2019-05-11T19:23:52.908Z,65
2019-05-11T19:29:02.841Z,65
2019-05-11T19:39:09.252Z,65
2019-05-11T19:44:13.109Z,65
2019-05-11T19:49:19.268Z,65
2019-05-11T19:59:18.222Z,65
2019-05-11T20:04:23.298Z,63
2019-05-11T20:09:28.606Z,62
2019-05-11T20:14:38.350Z,61
2019-05-11T20:19:49.325Z,60
2019-05-11T20:24:53.205Z,58
2019-05-11T20:29:58.345Z,56
2019-05-11T20:35:03.284Z,56
2019-05-11T20:40:09.511Z,55
2019-05-11T20:50:08.312Z,54
2019-05-11T20:55:13.415Z,55
2019-05-11T21:00:19.164Z,54
2019-05-11T21:05:28.306Z,54
2019-05-11T21:10:39.014Z,53
2019-05-11T21:15:43.379Z,54
2019-05-11T21:20:48.730Z,52
2019-05-11T21:25:53.331Z,50
2019-05-11T21:30:58.813Z,50
2019-05-11T21:36:03.352Z,48
2019-05-11T21:41:09.046Z,48
2019-05-11T21:46:13.619Z,49
2019-05-11T21:51:18.455Z,47
2019-05-11T21:56:23.346Z,48
2019-05-11T22:01:28.566Z,48
2019-05-11T22:11:28.755Z,48
2019-05-11T22:21:28.563Z,50
2019-05-11T22:26:33.660Z,50
2019-05-11T22:31:42.291Z,51
2019-05-11T22:36:48.646Z,50
2019-05-11T22:41:59.207Z,50
2019-05-11T22:47:03.696Z,50
2019-05-11T22:52:09.016Z,51
2019-05-11T22:57:13.599Z,51
2019-05-11T23:02:19.756Z,50
2019-05-11T23:07:29.061Z,52
2019-05-11T23:12:39.111Z,51
2019-05-11T23:17:43.599Z,52
2019-05-11T23:23:00.681Z,52
2019-05-11T23:23:54.896Z,52
2019-05-11T23:27:53.641Z,52
2019-05-11T23:32:59.027Z,53
2019-05-11T23:38:03.622Z,53
2019-05-11T23:48:03.785Z,53
2019-05-11T23:53:10.650Z,54
2019-05-11T23:58:13.758Z,54
